Hauptseite
METAR-TAF:

METAR-TAF

Flughäfen :

Campbeltown Airport

Campbeltown, Schottland

Breite: 55-26-14N, Länge: 005-41-11W, Höhe: 13 m

Beobachtung

Neuester Wetterbericht von vor 6 Stunden und 25 Minuten, um 16:20 UTC
Temperatur 16°C
Luftfeuchtigkeit 82%
Luftdruck 1011 hPa
Sichtweite 10 km oder mehr
Leicht bewölkt in der Höhe von 2000 ft

METAR: EGEC 221620Z 3007KT 9999 FEW020 16/13 Q1011

Zeit: 23:45 (22:45 UTC)

Prognose

Neuester Wetterbericht von vor 8 Stunden und 49 Minuten, um 13:56 UTC
Gültige Prognose vom 22 um 15 UTC bis 22 um 17 UTC
Wind 7 kt aus West/Nordwest
Sichtweite 10 km oder mehr
Leicht bewölkt in der Höhe von 1500 ft
Durchbrochene Bewölkung in der Höhe von 3500 ft
Wahrscheinlichkeit 40% :
Zeitweise
vom 22 um 15 UTC bis 22 um 17 UTC
Sichtweite: 7000 m
Regen, Regenschauer,

TAF: EGEC 221356Z 2215/2217 30007KT 9999 FEW015 BKN035 PROB40 TEMPO 2215/2217 7000 RA SHRA

Wetterbeobachtungen und Prognosen von mehr als 4000 Flughäfen (METAR und TAF Bericht).

Die verfügbaren Stationen werden durch gelbe und rote Markierungen auf der Karte dargestellt.

Führen Sie die Maus auf sie, um den Namen der Station zu sehen.

Darauf klicken, um die Beobachtung von Wetterbeobachtungen und Prognosen zu sehen.

Um die Karte zu ändern : klicken Sie auf den grünen Tasten mit einem schwarzen Kreuz Zum Vergrößern, auf den grünen Button mit einem Gedankenstrich zu verkleinern, oder auf die grünen Pfeile für benachbarte Karten.


METAR-TAF: